createdAt,value
2022-10-22T00:01:25.202Z,14.50
2022-10-22T00:03:54.776Z,14.40
2022-10-22T00:06:23.720Z,14.40
2022-10-22T00:08:52.538Z,14.40
2022-10-22T00:11:22.120Z,14.40
2022-10-22T00:13:51.053Z,14.40
2022-10-22T00:16:19.458Z,14.40
2022-10-22T00:18:48.192Z,14.40
2022-10-22T00:21:18.450Z,14.40
2022-10-22T00:23:46.501Z,14.50
2022-10-22T00:26:15.599Z,14.50
2022-10-22T00:28:47.032Z,14.50
2022-10-22T00:31:16.062Z,14.60
2022-10-22T00:33:47.345Z,14.60
2022-10-22T00:36:17.650Z,14.60
2022-10-22T00:38:46.056Z,14.60
2022-10-22T00:41:14.805Z,14.60
2022-10-22T00:44:00.668Z,14.60
2022-10-22T00:46:30.271Z,14.50
2022-10-22T00:49:01.140Z,14.40
2022-10-22T00:51:35.118Z,14.40
2022-10-22T00:54:08.822Z,14.40
2022-10-22T00:56:37.122Z,14.40
2022-10-22T00:59:06.060Z,14.40
2022-10-22T01:01:34.748Z,14.40
2022-10-22T01:04:03.655Z,14.40
2022-10-22T01:06:35.331Z,14.40
2022-10-22T01:09:18.575Z,14.30
2022-10-22T01:11:58.075Z,14.50
2022-10-22T01:14:36.421Z,14.50
2022-10-22T01:17:09.648Z,14.60
2022-10-22T01:19:48.352Z,14.40
2022-10-22T01:22:23.405Z,14.40
2022-10-22T01:24:59.885Z,14.40
2022-10-22T01:27:50.372Z,14.40
2022-10-22T01:30:21.185Z,14.30
2022-10-22T01:32:53.909Z,14.20
2022-10-22T01:35:31.094Z,14.20
2022-10-22T01:38:03.381Z,14.20
2022-10-22T01:40:35.956Z,14.30
2022-10-22T01:43:05.725Z,14.30
2022-10-22T01:45:40.010Z,14.20
2022-10-22T01:48:22.443Z,14.20
2022-10-22T01:51:06.301Z,14.10
2022-10-22T01:53:42.333Z,14.10
2022-10-22T01:56:29.201Z,14.20
2022-10-22T01:59:07.113Z,14.10
2022-10-22T02:01:46.003Z,14.10
2022-10-22T02:04:19.478Z,14.00
2022-10-22T02:06:51.821Z,14.00
2022-10-22T02:09:22.283Z,14.00
2022-10-22T02:11:51.788Z,14.00
2022-10-22T02:14:22.798Z,13.90
2022-10-22T02:16:52.517Z,13.90
2022-10-22T02:19:25.725Z,13.90
2022-10-22T02:21:55.448Z,13.90
2022-10-22T02:24:25.116Z,13.90
2022-10-22T02:27:00.986Z,13.90
2022-10-22T02:29:36.016Z,13.90
2022-10-22T02:32:09.999Z,13.90
2022-10-22T02:34:38.618Z,13.90
2022-10-22T02:37:08.329Z,13.80
2022-10-22T02:39:37.658Z,13.80
2022-10-22T02:42:06.266Z,13.80
2022-10-22T02:44:35.001Z,13.80
2022-10-22T02:47:03.426Z,13.80
2022-10-22T02:49:33.420Z,13.70
2022-10-22T02:52:02.145Z,13.70
2022-10-22T02:54:30.278Z,13.70
2022-10-22T02:56:58.371Z,13.70
2022-10-22T02:59:26.498Z,13.70
2022-10-22T03:01:54.584Z,13.70
2022-10-22T03:04:23.129Z,13.70
2022-10-22T03:06:52.626Z,13.60
2022-10-22T03:09:22.771Z,13.60
2022-10-22T03:11:53.268Z,13.60
2022-10-22T03:14:21.501Z,13.60
2022-10-22T03:16:49.791Z,13.60
2022-10-22T03:19:18.003Z,13.60
2022-10-22T03:21:50.105Z,13.60
2022-10-22T03:24:22.591Z,13.60
2022-10-22T03:26:53.052Z,13.60
2022-10-22T03:29:25.221Z,13.60
2022-10-22T03:31:53.701Z,13.60
2022-10-22T03:34:21.905Z,13.50
2022-10-22T03:36:50.580Z,13.60
2022-10-22T03:39:21.208Z,13.60
2022-10-22T03:41:51.469Z,13.60
2022-10-22T03:44:19.803Z,13.60
2022-10-22T03:46:48.638Z,13.70
2022-10-22T03:49:16.774Z,13.60
2022-10-22T03:51:45.647Z,13.60
2022-10-22T03:54:13.803Z,13.60
2022-10-22T03:56:43.585Z,13.70
2022-10-22T03:59:13.204Z,13.70
2022-10-22T04:01:41.348Z,13.70
2022-10-22T04:04:09.611Z,13.70
2022-10-22T04:06:37.668Z,13.80
2022-10-22T04:09:05.969Z,13.80
2022-10-22T04:11:34.090Z,13.70
2022-10-22T04:14:03.530Z,13.60
2022-10-22T04:16:33.210Z,13.60
2022-10-22T04:19:01.376Z,13.70
2022-10-22T04:21:29.488Z,13.60
2022-10-22T04:23:57.653Z,13.60
2022-10-22T04:26:26.046Z,13.50
2022-10-22T04:28:54.936Z,13.50
2022-10-22T04:31:26.147Z,13.50
2022-10-22T04:33:55.739Z,13.60
2022-10-22T04:36:25.021Z,13.60
2022-10-22T04:38:55.489Z,13.70
2022-10-22T04:41:25.571Z,13.70
2022-10-22T04:43:54.689Z,13.60
2022-10-22T04:46:24.809Z,13.60
2022-10-22T04:48:53.479Z,13.50
2022-10-22T04:51:23.482Z,13.50
2022-10-22T04:53:52.411Z,13.50
2022-10-22T04:56:23.017Z,13.50
2022-10-22T04:58:52.021Z,13.50
2022-10-22T05:01:22.557Z,13.50
2022-10-22T05:03:54.239Z,13.40
2022-10-22T05:06:22.957Z,13.50
2022-10-22T05:08:55.835Z,13.40
2022-10-22T05:11:27.881Z,13.40
2022-10-22T05:13:57.621Z,13.40
2022-10-22T05:16:26.784Z,13.40
2022-10-22T05:18:56.529Z,13.40
2022-10-22T05:21:24.559Z,13.40
2022-10-22T05:23:52.883Z,13.40
2022-10-22T05:26:22.632Z,13.40
2022-10-22T05:28:51.555Z,13.30
2022-10-22T05:31:20.925Z,13.30
2022-10-22T05:33:49.137Z,13.30
2022-10-22T05:36:21.011Z,13.40
2022-10-22T05:38:49.642Z,13.40
2022-10-22T05:41:19.151Z,13.30
2022-10-22T05:43:47.892Z,13.30
2022-10-22T05:46:22.251Z,13.30
2022-10-22T05:48:51.693Z,13.30
2022-10-22T05:51:21.581Z,13.30
2022-10-22T05:53:54.016Z,13.30
2022-10-22T05:56:22.792Z,13.30
2022-10-22T05:58:51.190Z,13.30
2022-10-22T06:01:21.358Z,13.40
2022-10-22T06:03:50.027Z,13.40
2022-10-22T06:06:22.895Z,13.40
2022-10-22T06:08:54.537Z,13.40
2022-10-22T06:11:24.338Z,13.40
2022-10-22T06:13:53.181Z,13.50
2022-10-22T06:16:21.344Z,13.50
2022-10-22T06:18:49.463Z,13.50
2022-10-22T06:21:18.053Z,13.60
2022-10-22T06:23:47.540Z,13.50
2022-10-22T06:26:17.813Z,13.40
2022-10-22T06:28:46.057Z,13.40
2022-10-22T06:31:14.506Z,13.30
2022-10-22T06:33:43.446Z,13.30
2022-10-22T06:36:14.489Z,13.30
2022-10-22T06:38:42.915Z,13.20
2022-10-22T06:41:14.510Z,13.20
2022-10-22T06:43:45.418Z,13.20
2022-10-22T06:46:17.496Z,13.20
2022-10-22T06:48:51.710Z,13.10
2022-10-22T06:51:21.102Z,13.00
2022-10-22T06:53:49.816Z,13.00
2022-10-22T06:56:21.045Z,12.90
2022-10-22T06:58:49.646Z,12.90
2022-10-22T07:01:19.097Z,12.90
2022-10-22T07:03:47.481Z,12.80
2022-10-22T07:06:16.287Z,12.90
2022-10-22T07:08:45.219Z,12.80
2022-10-22T07:11:15.563Z,12.90
2022-10-22T07:13:45.470Z,13.00
2022-10-22T07:16:14.336Z,12.90
2022-10-22T07:18:43.525Z,13.00
2022-10-22T07:21:12.706Z,13.00
2022-10-22T07:23:41.099Z,13.10
2022-10-22T07:26:10.032Z,13.10
2022-10-22T07:28:39.947Z,13.10
2022-10-22T07:31:11.126Z,13.10
2022-10-22T07:33:39.672Z,13.10
2022-10-22T07:36:09.457Z,13.20
2022-10-22T07:38:37.948Z,13.30
2022-10-22T07:41:06.323Z,13.40
2022-10-22T07:43:34.384Z,13.50
2022-10-22T07:46:02.936Z,13.60
2022-10-22T07:48:32.397Z,13.50
2022-10-22T07:51:00.491Z,13.50
2022-10-22T07:53:28.540Z,13.70
2022-10-22T07:55:56.895Z,13.90
2022-10-22T07:58:25.413Z,14.00
2022-10-22T08:00:56.949Z,13.90
2022-10-22T08:03:25.154Z,13.80
2022-10-22T08:05:56.109Z,13.70
2022-10-22T08:08:27.160Z,13.80
2022-10-22T08:11:00.412Z,13.90
2022-10-22T08:13:30.466Z,14.00
2022-10-22T08:15:59.204Z,14.20
2022-10-22T08:18:27.316Z,14.30
2022-10-22T08:20:57.052Z,14.40
2022-10-22T08:23:27.673Z,14.40
2022-10-22T08:25:56.781Z,14.40
2022-10-22T08:28:24.856Z,14.30
2022-10-22T08:30:53.198Z,14.40
2022-10-22T08:33:21.336Z,14.50
2022-10-22T08:35:50.528Z,14.60
2022-10-22T08:38:20.645Z,14.50
2022-10-22T08:40:52.704Z,14.30
2022-10-22T08:43:49.640Z,14.30
2022-10-22T08:46:44.019Z,14.40
2022-10-22T08:49:17.453Z,14.60
2022-10-22T08:51:45.795Z,14.50
2022-10-22T08:54:29.841Z,14.70
2022-10-22T08:57:15.213Z,14.90
2022-10-22T08:59:48.254Z,15.10
2022-10-22T09:02:29.173Z,15.40
2022-10-22T09:05:10.026Z,15.60
2022-10-22T09:07:43.213Z,15.60
2022-10-22T09:10:13.991Z,15.50
2022-10-22T09:12:42.235Z,15.70
2022-10-22T09:15:15.023Z,15.80
2022-10-22T09:17:59.897Z,16.00
2022-10-22T09:20:36.027Z,16.20
2022-10-22T09:23:20.266Z,16.70
2022-10-22T09:25:51.669Z,17.00
2022-10-22T09:28:20.016Z,17.40
2022-10-22T09:30:48.213Z,17.10
2022-10-22T09:33:25.055Z,16.80
2022-10-22T09:35:55.063Z,16.80
2022-10-22T09:38:27.536Z,16.70
2022-10-22T09:40:59.588Z,16.80
2022-10-22T09:43:27.743Z,16.90
2022-10-22T09:46:01.064Z,16.70
2022-10-22T09:48:35.266Z,16.80
2022-10-22T09:51:12.583Z,16.90
2022-10-22T09:53:44.050Z,17.20
2022-10-22T09:56:25.001Z,16.80
2022-10-22T09:58:53.297Z,16.80
2022-10-22T10:01:25.420Z,17.00
2022-10-22T10:03:53.581Z,17.20
2022-10-22T10:06:24.308Z,17.30
2022-10-22T10:08:52.742Z,17.50
2022-10-22T10:11:29.622Z,17.50
2022-10-22T10:14:09.515Z,17.70
2022-10-22T10:16:46.159Z,17.80
2022-10-22T10:19:38.141Z,17.80
2022-10-22T10:22:22.827Z,17.80
2022-10-22T10:25:04.105Z,17.70
2022-10-22T10:27:39.199Z,18.00
2022-10-22T10:30:13.949Z,17.90
2022-10-22T10:33:18.304Z,18.30
2022-10-22T10:35:55.435Z,18.50
2022-10-22T10:38:35.681Z,18.50
2022-10-22T10:41:17.142Z,17.70
2022-10-22T10:44:03.707Z,17.60
2022-10-22T10:46:39.903Z,17.20
2022-10-22T10:49:11.533Z,17.20
2022-10-22T10:51:47.326Z,17.20
2022-10-22T10:54:25.280Z,17.30
2022-10-22T10:56:58.046Z,17.10
2022-10-22T10:59:46.282Z,16.90
2022-10-22T11:02:39.218Z,17.00
2022-10-22T11:05:29.485Z,17.00
2022-10-22T11:08:01.745Z,16.90
2022-10-22T11:10:33.925Z,16.60
2022-10-22T11:13:09.733Z,16.60
2022-10-22T11:15:42.384Z,16.60
2022-10-22T11:18:19.068Z,16.60
2022-10-22T11:20:54.902Z,16.60
2022-10-22T11:23:29.224Z,16.60
2022-10-22T11:25:57.369Z,16.50
2022-10-22T11:28:28.666Z,16.60
2022-10-22T11:31:03.453Z,16.70
2022-10-22T11:33:39.301Z,16.80
2022-10-22T11:36:09.667Z,17.10
2022-10-22T11:38:38.924Z,17.20
2022-10-22T11:41:12.162Z,17.30
2022-10-22T11:43:58.323Z,17.30
2022-10-22T11:46:35.144Z,17.20
2022-10-22T11:49:06.529Z,17.20
2022-10-22T11:51:36.466Z,17.30
2022-10-22T11:54:27.854Z,17.70
2022-10-22T11:57:14.441Z,17.70
2022-10-22T11:59:50.569Z,18.00
2022-10-22T12:02:32.677Z,18.10
2022-10-22T12:05:43.822Z,18.10
2022-10-22T12:08:33.820Z,18.50
2022-10-22T12:11:07.387Z,18.60
2022-10-22T12:14:11.043Z,19.10
2022-10-22T12:16:55.829Z,19.60
2022-10-22T12:19:31.889Z,19.50
2022-10-22T12:22:03.261Z,19.70
2022-10-22T12:24:35.397Z,19.60
2022-10-22T12:27:03.912Z,19.40
2022-10-22T12:29:34.369Z,19.80
2022-10-22T12:32:05.661Z,19.90
2022-10-22T12:34:35.263Z,19.80
2022-10-22T12:37:08.816Z,19.90
2022-10-22T12:39:36.850Z,20.10
2022-10-22T12:42:06.818Z,20.70
2022-10-22T12:44:34.889Z,20.40
2022-10-22T12:47:03.101Z,19.70
2022-10-22T12:49:39.689Z,19.30
2022-10-22T12:52:14.057Z,19.30
2022-10-22T12:54:42.792Z,19.50
2022-10-22T12:57:14.365Z,19.30
2022-10-22T12:59:49.983Z,19.00
2022-10-22T13:02:22.649Z,18.80
2022-10-22T13:05:25.369Z,18.80
2022-10-22T13:07:55.572Z,18.70
2022-10-22T13:10:27.256Z,19.10
2022-10-22T13:12:58.409Z,19.70
2022-10-22T13:15:39.046Z,19.90
2022-10-22T13:18:16.985Z,20.00
2022-10-22T13:20:54.605Z,20.20
2022-10-22T13:23:24.066Z,19.70
2022-10-22T13:26:00.400Z,19.80
2022-10-22T13:28:29.927Z,20.10
2022-10-22T13:31:00.871Z,20.30
2022-10-22T13:33:33.514Z,20.30
2022-10-22T13:36:03.451Z,19.60
2022-10-22T13:38:32.211Z,19.30
2022-10-22T13:41:00.388Z,18.90
2022-10-22T13:43:28.503Z,18.70
2022-10-22T13:46:00.157Z,18.70
2022-10-22T13:48:30.821Z,18.80
2022-10-22T13:50:59.717Z,19.60
2022-10-22T13:53:30.275Z,20.20
2022-10-22T13:55:58.568Z,20.70
2022-10-22T13:58:26.629Z,20.50
2022-10-22T14:00:57.221Z,21.00
2022-10-22T14:03:29.205Z,21.60
2022-10-22T14:05:58.292Z,21.70
2022-10-22T14:08:29.290Z,21.60
2022-10-22T14:10:57.411Z,21.90
2022-10-22T14:13:26.659Z,22.10
2022-10-22T14:15:54.872Z,21.70
2022-10-22T14:18:27.423Z,21.70
2022-10-22T14:20:58.320Z,21.50
2022-10-22T14:23:30.361Z,21.80
2022-10-22T14:25:59.385Z,21.70
2022-10-22T14:28:27.439Z,21.80
2022-10-22T14:30:56.314Z,21.70
2022-10-22T14:33:31.353Z,21.40
2022-10-22T14:36:00.323Z,21.10
2022-10-22T14:38:30.264Z,21.80
2022-10-22T14:41:00.711Z,22.10
2022-10-22T14:43:31.428Z,22.20
2022-10-22T14:46:00.081Z,22.00
2022-10-22T14:48:28.146Z,22.20
2022-10-22T14:50:56.249Z,22.30
2022-10-22T14:53:24.284Z,22.60
2022-10-22T14:55:55.653Z,22.60
2022-10-22T14:58:23.682Z,22.30
2022-10-22T15:00:51.847Z,22.40
2022-10-22T15:03:20.017Z,21.60
2022-10-22T15:05:48.204Z,20.80
2022-10-22T15:08:16.614Z,20.40
2022-10-22T15:10:44.693Z,20.20
2022-10-22T15:13:14.156Z,20.00
2022-10-22T15:15:42.748Z,20.10
2022-10-22T15:18:10.785Z,20.30
2022-10-22T15:20:38.820Z,20.40
2022-10-22T15:23:06.868Z,20.80
2022-10-22T15:25:35.044Z,21.10
2022-10-22T15:28:09.425Z,21.20
2022-10-22T15:30:39.543Z,21.80
2022-10-22T15:33:07.686Z,22.20
2022-10-22T15:35:36.001Z,22.50
2022-10-22T15:38:06.568Z,22.70
2022-10-22T15:40:34.700Z,22.70
2022-10-22T15:43:02.937Z,22.90
2022-10-22T15:45:31.015Z,22.90
2022-10-22T15:48:00.417Z,22.70
2022-10-22T15:50:28.473Z,22.40
2022-10-22T15:52:57.401Z,22.10
2022-10-22T15:55:25.587Z,21.70
2022-10-22T15:57:58.019Z,21.40
2022-10-22T16:00:28.730Z,21.00
2022-10-22T16:02:56.785Z,20.70
2022-10-22T16:05:28.556Z,20.40
2022-10-22T16:07:57.147Z,20.00
2022-10-22T16:10:25.528Z,19.70
2022-10-22T16:12:54.686Z,19.40
2022-10-22T16:15:22.756Z,19.20
2022-10-22T16:17:53.044Z,18.90
2022-10-22T16:20:21.140Z,18.60
2022-10-22T16:22:52.229Z,18.40
2022-10-22T16:25:20.296Z,18.20
2022-10-22T16:27:50.882Z,18.00
2022-10-22T16:30:19.174Z,17.80
2022-10-22T16:32:47.289Z,17.70
2022-10-22T16:35:15.472Z,17.60
2022-10-22T16:37:43.990Z,17.50
2022-10-22T16:40:14.346Z,17.40
2022-10-22T16:42:44.102Z,17.20
2022-10-22T16:45:12.537Z,17.10
2022-10-22T16:47:43.003Z,17.00
2022-10-22T16:50:11.604Z,16.90
2022-10-22T16:52:39.659Z,16.80
2022-10-22T16:55:08.302Z,16.80
2022-10-22T16:57:37.738Z,16.80
2022-10-22T17:00:06.915Z,16.70
2022-10-22T17:02:35.296Z,16.80
2022-10-22T17:05:03.377Z,16.70
2022-10-22T17:07:31.441Z,16.60
2022-10-22T17:10:01.167Z,16.60
2022-10-22T17:12:35.178Z,16.40
2022-10-22T17:15:06.151Z,16.40
2022-10-22T17:17:34.513Z,16.30
2022-10-22T17:20:02.906Z,16.20
2022-10-22T17:22:30.976Z,16.10
2022-10-22T17:25:10.658Z,16.00
2022-10-22T17:27:39.385Z,16.00
2022-10-22T17:30:13.416Z,15.90
2022-10-22T17:32:41.471Z,15.90
2022-10-22T17:35:10.329Z,15.80
2022-10-22T17:37:38.846Z,15.80
2022-10-22T17:40:08.039Z,15.80
2022-10-22T17:42:36.234Z,15.80
2022-10-22T17:45:04.389Z,15.70
2022-10-22T17:47:33.935Z,15.70
2022-10-22T17:50:01.998Z,15.70
2022-10-22T17:52:30.044Z,15.60
2022-10-22T17:54:58.068Z,15.60
2022-10-22T17:57:26.181Z,15.50
2022-10-22T17:59:54.266Z,15.50
2022-10-22T18:02:22.354Z,15.50
2022-10-22T18:04:53.214Z,15.50
2022-10-22T18:07:21.409Z,15.50
2022-10-22T18:09:49.775Z,15.40
2022-10-22T18:12:19.120Z,15.30
2022-10-22T18:14:47.521Z,15.30
2022-10-22T18:17:15.718Z,15.20
2022-10-22T18:19:43.839Z,15.20
2022-10-22T18:22:13.310Z,15.20
2022-10-22T18:24:41.486Z,15.20
2022-10-22T18:27:09.564Z,15.20
2022-10-22T18:29:38.563Z,15.20
2022-10-22T18:32:10.790Z,15.30
2022-10-22T18:34:41.248Z,15.30
2022-10-22T18:37:09.389Z,15.30
2022-10-22T18:39:38.809Z,15.30
2022-10-22T18:42:07.310Z,15.30
2022-10-22T18:44:36.498Z,15.20
2022-10-22T18:47:04.656Z,15.20
2022-10-22T18:49:32.709Z,15.10
2022-10-22T18:52:00.820Z,15.10
2022-10-22T18:54:29.312Z,15.00
2022-10-22T18:57:02.518Z,15.00
2022-10-22T18:59:31.364Z,14.90
2022-10-22T19:02:00.026Z,14.90
2022-10-22T19:04:33.057Z,14.90
2022-10-22T19:07:01.185Z,14.90
2022-10-22T19:09:29.317Z,14.80
2022-10-22T19:11:58.894Z,14.80
2022-10-22T19:14:27.093Z,14.70
2022-10-22T19:16:55.375Z,14.70
2022-10-22T19:19:24.457Z,14.70
2022-10-22T19:21:52.707Z,14.60
2022-10-22T19:24:21.594Z,14.60
2022-10-22T19:26:50.890Z,14.60
2022-10-22T19:29:22.463Z,14.60
2022-10-22T19:31:51.856Z,14.50
2022-10-22T19:34:20.615Z,14.50
2022-10-22T19:36:51.632Z,14.50
2022-10-22T19:39:19.853Z,14.50
2022-10-22T19:41:48.062Z,14.50
2022-10-22T19:44:16.353Z,14.50
2022-10-22T19:46:45.818Z,14.50
2022-10-22T19:49:17.701Z,14.50
2022-10-22T19:51:48.596Z,14.50
2022-10-22T19:54:18.790Z,14.50
2022-10-22T19:56:47.825Z,14.50
2022-10-22T19:59:16.817Z,14.40
2022-10-22T20:01:46.294Z,14.40
2022-10-22T20:04:17.703Z,14.40
2022-10-22T20:06:45.940Z,14.40
2022-10-22T20:09:14.573Z,14.30
2022-10-22T20:11:42.930Z,14.30
2022-10-22T20:14:12.579Z,14.30
2022-10-22T20:16:41.111Z,14.30
2022-10-22T20:19:13.527Z,14.30
2022-10-22T20:21:41.968Z,14.30
2022-10-22T20:24:10.092Z,14.30
2022-10-22T20:26:38.142Z,14.20
2022-10-22T20:29:06.247Z,14.20
2022-10-22T20:31:35.987Z,14.30
2022-10-22T20:34:04.196Z,14.30
2022-10-22T20:36:34.221Z,14.30
2022-10-22T20:39:06.189Z,14.30
2022-10-22T20:41:35.509Z,14.20
2022-10-22T20:44:03.590Z,14.20
2022-10-22T20:46:33.152Z,14.20
2022-10-22T20:49:02.730Z,14.20
2022-10-22T20:51:30.950Z,14.20
2022-10-22T20:54:00.421Z,14.10
2022-10-22T20:56:29.513Z,14.10
2022-10-22T20:59:05.310Z,14.10
2022-10-22T21:01:36.586Z,14.10
2022-10-22T21:04:05.286Z,14.10
2022-10-22T21:06:34.282Z,14.10
2022-10-22T21:09:03.844Z,14.10
2022-10-22T21:11:31.931Z,14.10
2022-10-22T21:14:00.057Z,14.10
2022-10-22T21:16:28.173Z,14.10
2022-10-22T21:18:56.939Z,14.10
2022-10-22T21:21:25.097Z,14.20
2022-10-22T21:23:53.287Z,14.20
2022-10-22T21:26:22.769Z,14.20
2022-10-22T21:28:50.850Z,14.20
2022-10-22T21:31:24.234Z,14.10
2022-10-22T21:33:52.333Z,14.20
2022-10-22T21:36:23.169Z,14.10
2022-10-22T21:38:52.113Z,14.10
2022-10-22T21:41:23.608Z,14.00
2022-10-22T21:43:52.252Z,14.00
2022-10-22T21:46:22.376Z,13.90
2022-10-22T21:48:54.337Z,13.80
2022-10-22T21:51:24.217Z,13.80
2022-10-22T21:56:28.981Z,13.70
2022-10-22T21:58:57.094Z,13.70
2022-10-22T22:01:25.738Z,13.70
2022-10-22T22:03:54.061Z,13.60
2022-10-22T22:06:23.956Z,13.60
2022-10-22T22:08:54.043Z,13.50
2022-10-22T22:11:25.300Z,13.50
2022-10-22T22:13:56.056Z,13.50
2022-10-22T22:16:28.341Z,13.40
2022-10-22T22:18:58.095Z,13.40
2022-10-22T22:21:26.306Z,13.40
2022-10-22T22:23:54.577Z,13.40
2022-10-22T22:26:29.456Z,13.40
2022-10-22T22:29:00.561Z,13.30
2022-10-22T22:31:31.079Z,13.30
2022-10-22T22:34:00.629Z,13.30
2022-10-22T22:36:29.289Z,13.30
2022-10-22T22:38:57.885Z,13.30
2022-10-22T22:41:26.127Z,13.30
2022-10-22T22:46:28.592Z,13.30
2022-10-22T22:48:56.662Z,13.40
2022-10-22T22:51:24.991Z,13.40
2022-10-22T22:53:53.118Z,13.40
2022-10-22T22:56:23.757Z,13.30
2022-10-22T22:58:51.872Z,13.30
2022-10-22T23:01:21.775Z,13.30
2022-10-22T23:03:55.834Z,13.30
2022-10-22T23:06:25.346Z,13.30
2022-10-22T23:08:54.687Z,13.30
2022-10-22T23:11:23.825Z,13.20
2022-10-22T23:13:54.341Z,13.30
2022-10-22T23:16:23.996Z,13.20
2022-10-22T23:18:54.722Z,13.20
2022-10-22T23:21:25.893Z,13.20
2022-10-22T23:23:56.548Z,13.20
2022-10-22T23:26:26.721Z,13.20
2022-10-22T23:28:55.253Z,13.20
2022-10-22T23:31:23.310Z,13.30
2022-10-22T23:33:51.377Z,13.20
2022-10-22T23:36:20.946Z,13.30
2022-10-22T23:38:49.797Z,13.20
2022-10-22T23:41:18.169Z,13.30
2022-10-22T23:43:46.242Z,13.20
2022-10-22T23:46:14.879Z,13.20
2022-10-22T23:48:43.150Z,13.20
2022-10-22T23:51:13.348Z,13.20
2022-10-22T23:53:44.237Z,13.20
2022-10-22T23:56:15.846Z,13.20
2022-10-22T23:58:44.233Z,13.10
